Terminal Aerodrome Forecast
Issued by NWS Upton, NY

Home | Current Version | Previous Version | Text Only | Print | Product List | Glossary On
Versions: 1 2 3 4 5 6 7 8 9 10 11 12 13 14 15 16 17 18 19 20 21 22 23 24 25 26 27 28 29 30 31 32 33 34
000
FTUS41 KOKX 261400 AAB
TAFLGA
TAF AMD
KLGA 261435Z 2615/2712 06016G22KT 1SM -SN BKN018
     FM261600 05016G22KT 1SM -SN BR BKN012
     FM261800 04020G26KT 3/4SM -SN BR BKN007
     FM262200 03022G30KT 1/2SM SN FZFG VV005
     FM270400 01025G35KT 1/4SM +SN FZFG VV003=

USA.gov is the U.S. government's official web portal to all federal, state and local government web resources and services.